Time;durP1;ratioP1;P1;durP2;ratioP2;P2;SDS_P1;SDS_P2;PMS_P1;PMS_P2;Temp;Humidity;BMP_temperature;BMP_pressure;BME280_temperature;BME280_humidity;BME280_pressure;Samples;Min_cycle;Max_cycle;Signal;HPM_P1;HPM_P2
2022/12/23 00:02:17;;;;;;;329.35;213.73;;;8.90;99.90;;;;;;5051317;28;20055;-73
2022/12/23 00:04:44;;;;;;;310.17;203.27;;;8.80;99.90;;;;;;5051707;28;20741;-74
2022/12/23 00:07:12;;;;;;;300.92;194.20;;;8.80;99.90;;;;;;5050204;28;20091;-74
2022/12/23 00:09:39;;;;;;;294.38;189.45;;;8.90;99.90;;;;;;5051474;28;20404;-72
2022/12/23 00:15:07;;;;;;;272.40;171.95;;;8.90;99.90;;;;;;5007110;28;20115;-74
2022/12/23 00:17:37;;;;;;;274.20;173.65;;;8.90;99.90;;;;;;5050366;28;20104;-73
2022/12/23 00:20:06;;;;;;;281.88;178.85;;;8.80;99.90;;;;;;5050579;28;20045;-73
2022/12/23 00:25:18;;;;;;;272.33;168.98;;;8.70;99.90;;;;;;5051267;28;20427;-73
2022/12/23 00:28:00;;;;;;;270.40;170.77;;;8.70;99.90;;;;;;5050217;28;20048;-72
2022/12/23 00:30:29;;;;;;;286.42;183.15;;;8.60;99.90;;;;;;5050967;28;20048;-73
2022/12/23 00:32:56;;;;;;;315.27;205.25;;;8.60;99.90;;;;;;5050711;28;20041;-73
2022/12/23 00:35:23;;;;;;;351.80;226.90;;;8.50;99.90;;;;;;5053675;28;20037;-74
2022/12/23 00:37:51;;;;;;;349.95;223.95;;;8.40;99.90;;;;;;5054454;28;20080;-72
2022/12/23 00:43:03;;;;;;;332.23;215.15;;;8.30;99.90;;;;;;5051994;28;20118;-72
2022/12/23 00:45:32;;;;;;;318.17;202.95;;;8.30;99.90;;;;;;5051649;28;20048;-72
2022/12/23 00:50:44;;;;;;;313.17;196.48;;;8.50;99.90;;;;;;5051034;28;20041;-72
2022/12/23 00:53:11;;;;;;;319.45;199.20;;;8.60;99.90;;;;;;5050958;28;20043;-73
2022/12/23 00:55:39;;;;;;;313.02;197.35;;;8.60;99.90;;;;;;5051395;28;20044;-73
2022/12/23 00:58:06;;;;;;;316.15;200.40;;;8.60;99.90;;;;;;5049469;28;20045;-73
2022/12/23 01:06:05;;;;;;;278.95;174.05;;;8.50;99.90;;;;;;5050421;28;20048;-72
2022/12/23 01:08:33;;;;;;;284.20;176.38;;;8.40;99.90;;;;;;5050640;28;20041;-73
2022/12/23 01:11:03;;;;;;;297.42;195.45;;;8.40;99.90;;;;;;5050337;28;20044;-74
2022/12/23 01:13:30;;;;;;;282.45;178.60;;;8.30;99.90;;;;;;5031043;28;20053;-73
2022/12/23 01:16:02;;;;;;;246.73;154.75;;;8.20;99.90;;;;;;5048953;28;20034;-72
2022/12/23 01:18:30;;;;;;;243.57;147.88;;;8.30;99.90;;;;;;5049559;28;20124;-74
2022/12/23 01:21:02;;;;;;;231.55;145.52;;;8.30;99.90;;;;;;5050046;28;20445;-72
2022/12/23 01:23:29;;;;;;;216.68;136.60;;;8.30;99.90;;;;;;5048979;28;20472;-73
2022/12/23 01:25:58;;;;;;;196.85;129.23;;;8.30;99.90;;;;;;5049823;28;20041;-73
2022/12/23 01:28:25;;;;;;;198.95;127.65;;;8.40;99.90;;;;;;5049946;28;20424;-73
2022/12/23 01:30:53;;;;;;;179.60;113.82;;;8.40;99.90;;;;;;5031692;28;20037;-73
2022/12/23 01:33:22;;;;;;;128.57;83.40;;;8.50;99.90;;;;;;5049016;28;20503;-73
2022/12/23 01:35:49;;;;;;;111.03;74.07;;;8.50;99.90;;;;;;5048839;28;20047;-73
2022/12/23 01:38:17;;;;;;;115.25;75.35;;;8.50;99.90;;;;;;5048151;28;20041;-73
2022/12/23 01:40:46;;;;;;;164.18;104.53;;;8.50;99.90;;;;;;5049605;28;20067;-72
2022/12/23 01:43:15;;;;;;;166.20;105.95;;;8.40;99.90;;;;;;5049200;28;20624;-74
2022/12/23 01:45:42;;;;;;;166.35;107.32;;;8.40;99.90;;;;;;5049755;28;20218;-73
2022/12/23 01:48:12;;;;;;;187.73;119.55;;;8.40;99.90;;;;;;5048441;28;20040;-73
2022/12/23 01:50:46;;;;;;;175.48;115.10;;;8.30;99.90;;;;;;5049128;28;20056;-76
2022/12/23 01:53:17;;;;;;;175.77;115.22;;;8.20;99.90;;;;;;5049146;28;20055;-73
2022/12/23 01:55:48;;;;;;;183.55;118.15;;;8.10;99.90;;;;;;5049380;28;20041;-73
2022/12/23 01:58:21;;;;;;;173.85;113.20;;;8.10;99.90;;;;;;5049087;28;20033;-72
2022/12/23 02:03:42;;;;;;;176.88;113.85;;;7.90;99.90;;;;;;5049050;28;20049;-73
2022/12/23 02:09:18;;;;;;;176.85;111.88;;;7.90;99.90;;;;;;5048871;28;20051;-73
2022/12/23 02:12:17;;;;;;;183.43;117.47;;;7.70;99.90;;;;;;5049560;28;20397;-73
2022/12/23 02:17:57;;;;;;;160.95;102.82;;;7.60;99.90;;;;;;5048447;28;20041;-73
2022/12/23 02:20:49;;;;;;;144.88;92.00;;;7.50;99.90;;;;;;5048602;28;20048;-73
2022/12/23 02:23:54;;;;;;;162.60;102.80;;;7.50;99.90;;;;;;5049555;28;20162;-73
2022/12/23 02:26:51;;;;;;;155.30;99.32;;;7.40;99.90;;;;;;5030994;28;20045;-72
2022/12/23 02:30:00;;;;;;;154.55;97.82;;;7.30;99.90;;;;;;5049651;28;20044;-73
2022/12/23 02:32:36;;;;;;;152.98;99.35;;;7.30;99.90;;;;;;5050185;28;20045;-72
2022/12/23 02:35:12;;;;;;;148.82;94.45;;;7.30;99.90;;;;;;5048701;28;20037;-73
2022/12/23 02:37:50;;;;;;;152.90;94.07;;;7.30;99.90;;;;;;5048700;28;20374;-72
2022/12/23 02:40:28;;;;;;;148.25;86.63;;;7.30;99.90;;;;;;5047906;28;20416;-73
2022/12/23 02:43:04;;;;;;;147.20;84.78;;;7.20;99.90;;;;;;5048424;28;20045;-72
2022/12/23 02:45:38;;;;;;;153.32;87.47;;;7.20;99.90;;;;;;5048571;28;20041;-72
2022/12/23 02:48:12;;;;;;;127.03;68.93;;;7.20;99.90;;;;;;5048418;28;20088;-72
2022/12/23 02:50:42;;;;;;;113.40;57.88;;;7.10;99.90;;;;;;5053090;28;20404;-73
2022/12/23 02:53:17;;;;;;;112.38;60.65;;;7.10;99.90;;;;;;5053867;28;20041;-73
2022/12/23 02:55:48;;;;;;;114.35;58.75;;;7.00;99.90;;;;;;5059184;28;20119;-73
2022/12/23 02:58:19;;;;;;;111.57;59.15;;;7.00;99.90;;;;;;5054999;28;20041;-73
2022/12/23 03:00:48;;;;;;;125.07;63.58;;;7.00;99.90;;;;;;5052800;28;20045;-73
2022/12/23 03:03:19;;;;;;;125.20;64.18;;;7.00;99.90;;;;;;5051720;28;20041;-73
2022/12/23 03:05:50;;;;;;;185.25;98.82;;;7.00;99.90;;;;;;5051874;28;20033;-73
2022/12/23 03:08:22;;;;;;;184.35;97.28;;;7.00;99.90;;;;;;5052084;28;20052;-73
2022/12/23 03:11:03;;;;;;;178.02;87.63;;;7.20;99.90;;;;;;5053205;28;20091;-72
2022/12/23 03:13:42;;;;;;;136.82;77.20;;;7.20;99.90;;;;;;5054258;28;20053;-73
2022/12/23 03:16:20;;;;;;;140.93;80.13;;;7.20;99.90;;;;;;5052833;28;20415;-73
2022/12/23 03:19:04;;;;;;;122.88;72.25;;;7.20;99.90;;;;;;5057350;28;20071;-73
2022/12/23 03:21:38;;;;;;;136.23;82.32;;;7.20;99.90;;;;;;5058080;28;20507;-73
2022/12/23 03:24:16;;;;;;;140.30;76.55;;;7.20;99.90;;;;;;5069593;23;20045;-73
2022/12/23 03:26:50;;;;;;;131.50;69.30;;;7.20;99.90;;;;;;5062278;28;20449;-74
2022/12/23 03:29:24;;;;;;;131.77;67.68;;;7.10;99.90;;;;;;5052209;28;20041;-75
2022/12/23 03:31:54;;;;;;;167.77;76.05;;;7.00;99.90;;;;;;5052488;28;20111;-73
2022/12/23 03:34:27;;;;;;;150.10;70.30;;;7.00;99.90;;;;;;5051951;28;20044;-73
2022/12/23 03:36:58;;;;;;;292.13;96.63;;;7.00;99.90;;;;;;5032606;28;20068;-73
2022/12/23 03:39:29;;;;;;;296.40;101.18;;;6.80;99.90;;;;;;5056373;28;20526;-75
2022/12/23 03:42:02;;;;;;;269.35;92.53;;;6.80;99.90;;;;;;5065037;28;20512;-75
2022/12/23 03:44:33;;;;;;;356.33;92.70;;;6.80;99.90;;;;;;5060225;28;20041;-73
2022/12/23 03:47:04;;;;;;;295.13;96.93;;;6.80;99.90;;;;;;5052743;28;20045;-73
2022/12/23 03:49:39;;;;;;;425.98;108.75;;;6.70;99.90;;;;;;5052850;28;20049;-73
2022/12/23 03:52:10;;;;;;;255.25;85.93;;;6.60;99.90;;;;;;5059081;28;20048;-74
2022/12/23 03:54:42;;;;;;;245.60;78.00;;;6.50;99.90;;;;;;5046455;28;20103;-75
2022/12/23 03:57:12;;;;;;;252.82;76.10;;;6.50;99.90;;;;;;5051701;28;20037;-75
2022/12/23 03:59:42;;;;;;;249.63;75.00;;;6.40;99.90;;;;;;5053513;28;20045;-75
2022/12/23 04:02:16;;;;;;;250.73;81.40;;;6.30;99.90;;;;;;5053302;28;20037;-73
2022/12/23 04:05:09;;;;;;;273.58;86.10;;;6.30;99.90;;;;;;5051568;28;20040;-74
2022/12/23 04:07:41;;;;;;;168.77;66.70;;;6.20;99.90;;;;;;5051511;28;20041;-75
2022/12/23 04:10:11;;;;;;;173.45;69.03;;;6.10;99.90;;;;;;5051810;28;20033;-74
2022/12/23 04:12:39;;;;;;;184.15;75.00;;;6.20;99.90;;;;;;5033029;28;20045;-73
2022/12/23 04:15:07;;;;;;;180.00;74.85;;;6.10;99.90;;;;;;5052460;28;20043;-74
2022/12/23 04:17:34;;;;;;;168.02;66.28;;;6.10;99.90;;;;;;5050580;28;20040;-73
2022/12/23 04:20:02;;;;;;;161.35;62.88;;;6.20;99.90;;;;;;5052091;28;20485;-74
2022/12/23 04:22:31;;;;;;;138.00;50.60;;;6.10;99.90;;;;;;5051790;28;20053;-74
2022/12/23 04:24:58;;;;;;;118.00;45.03;;;6.20;99.90;;;;;;5051847;28;20041;-74
2022/12/23 04:27:25;;;;;;;126.32;46.67;;;6.20;99.90;;;;;;5051450;28;20040;-74
2022/12/23 04:29:53;;;;;;;111.22;44.88;;;6.10;99.90;;;;;;5055152;28;20037;-76
2022/12/23 04:32:20;;;;;;;122.72;49.08;;;6.10;99.90;;;;;;5075595;28;20112;-74
2022/12/23 04:34:47;;;;;;;114.55;45.97;;;6.00;99.90;;;;;;5053462;28;20045;-74
2022/12/23 04:37:15;;;;;;;110.78;50.60;;;6.00;99.90;;;;;;5052732;28;20055;-75
2022/12/23 04:39:44;;;;;;;126.22;54.42;;;5.90;99.90;;;;;;5053249;28;20515;-73
2022/12/23 04:42:11;;;;;;;125.00;53.25;;;5.90;99.90;;;;;;5052420;28;20670;-74
2022/12/23 04:44:38;;;;;;;119.68;51.78;;;5.90;99.90;;;;;;5051436;28;20040;-74
2022/12/23 04:47:06;;;;;;;117.13;53.58;;;5.90;99.90;;;;;;5050620;28;20033;-75
2022/12/23 04:49:33;;;;;;;84.65;42.67;;;5.90;99.90;;;;;;5051415;28;20071;-75
2022/12/23 04:52:01;;;;;;;108.82;46.08;;;5.90;99.90;;;;;;5051216;28;20040;-75
2022/12/23 04:54:28;;;;;;;119.90;52.65;;;5.90;99.90;;;;;;5051140;28;20075;-76
2022/12/23 04:56:57;;;;;;;100.28;48.85;;;5.80;99.90;;;;;;5051239;28;20066;-77
2022/12/23 04:59:24;;;;;;;106.07;51.13;;;5.90;99.90;;;;;;5053746;28;20040;-76
2022/12/23 05:01:52;;;;;;;188.55;76.38;;;5.90;99.90;;;;;;5059470;28;20037;-79
2022/12/23 05:04:19;;;;;;;187.65;77.80;;;5.90;99.90;;;;;;5052264;28;20140;-76
2022/12/23 05:06:47;;;;;;;277.45;96.07;;;5.80;99.90;;;;;;5054469;28;20958;-75
2022/12/23 05:09:14;;;;;;;202.35;77.90;;;5.70;99.90;;;;;;5058274;28;20041;-75
2022/12/23 05:11:42;;;;;;;178.30;81.22;;;5.70;99.90;;;;;;5057689;28;20037;-76
2022/12/23 05:14:12;;;;;;;137.07;66.53;;;5.60;99.90;;;;;;5064253;28;20049;-75
2022/12/23 05:16:40;;;;;;;182.07;70.93;;;5.60;99.90;;;;;;5057499;28;20124;-75
2022/12/23 05:19:08;;;;;;;167.82;68.88;;;5.60;99.90;;;;;;5043617;28;20045;-76
2022/12/23 05:21:35;;;;;;;170.68;67.85;;;5.50;99.90;;;;;;5031314;28;20053;-76
2022/12/23 05:24:03;;;;;;;245.30;72.03;;;5.50;99.90;;;;;;5052084;28;20478;-76
2022/12/23 05:26:30;;;;;;;143.85;64.38;;;5.50;99.90;;;;;;5051082;28;20048;-75
2022/12/23 05:28:58;;;;;;;145.45;67.10;;;5.40;99.90;;;;;;5032911;28;20489;-76
2022/12/23 05:31:27;;;;;;;150.82;69.75;;;5.40;99.90;;;;;;5051639;28;20041;-75
2022/12/23 05:33:54;;;;;;;144.55;64.35;;;5.40;99.90;;;;;;5051462;28;20041;-76
2022/12/23 05:36:22;;;;;;;173.70;73.20;;;5.40;99.90;;;;;;5050777;28;20051;-74
2022/12/23 05:38:49;;;;;;;132.80;60.90;;;5.40;99.90;;;;;;5051788;28;20051;-75
2022/12/23 05:41:17;;;;;;;138.35;58.63;;;5.30;99.90;;;;;;5049996;28;20128;-76
2022/12/23 05:43:44;;;;;;;155.00;66.07;;;5.30;99.90;;;;;;5053452;28;20056;-77
2022/12/23 05:46:12;;;;;;;155.57;67.28;;;5.30;99.90;;;;;;5043359;28;20061;-74
2022/12/23 05:48:41;;;;;;;220.65;86.43;;;5.20;99.90;;;;;;5039721;28;20049;-75
2022/12/23 05:51:09;;;;;;;165.43;80.78;;;5.20;99.90;;;;;;5050378;28;20072;-75
2022/12/23 05:53:36;;;;;;;133.98;71.07;;;5.10;99.90;;;;;;5049684;28;20041;-75
2022/12/23 05:56:05;;;;;;;142.88;70.25;;;5.10;99.90;;;;;;5052193;28;20056;-74
2022/12/23 05:58:32;;;;;;;142.85;69.65;;;5.10;99.90;;;;;;5054662;28;20033;-76
2022/12/23 06:01:02;;;;;;;133.90;66.55;;;5.10;99.90;;;;;;5049957;28;20052;-76
2022/12/23 06:03:30;;;;;;;142.52;69.72;;;5.10;99.90;;;;;;5049911;28;20091;-76
2022/12/23 06:05:59;;;;;;;139.35;70.93;;;5.10;99.90;;;;;;5029800;28;20037;-75
2022/12/23 06:08:26;;;;;;;142.75;75.68;;;5.10;99.90;;;;;;5049036;28;20087;-76
2022/12/23 06:10:54;;;;;;;124.68;64.50;;;5.10;99.90;;;;;;5050116;28;20040;-75
2022/12/23 06:13:21;;;;;;;126.38;66.78;;;5.10;99.90;;;;;;5050117;28;20051;-76
2022/12/23 06:15:48;;;;;;;124.07;68.13;;;5.00;99.90;;;;;;5062118;28;20037;-76
2022/12/23 06:18:16;;;;;;;165.18;83.80;;;5.00;99.90;;;;;;5059600;28;20051;-76
2022/12/23 06:20:46;;;;;;;135.73;76.07;;;5.00;99.90;;;;;;5057242;28;20442;-75
2022/12/23 06:23:15;;;;;;;100.55;52.25;;;4.90;99.90;;;;;;5063712;28;20060;-74
2022/12/23 06:25:42;;;;;;;117.68;60.25;;;4.90;99.90;;;;;;5056432;28;20036;-74
2022/12/23 06:28:10;;;;;;;121.60;64.85;;;4.90;99.90;;;;;;5055212;28;20059;-75
2022/12/23 06:30:37;;;;;;;121.03;63.00;;;4.90;99.90;;;;;;5051210;28;20049;-76
2022/12/23 06:33:05;;;;;;;134.10;66.45;;;4.90;99.90;;;;;;5049684;28;20045;-77
2022/12/23 06:35:32;;;;;;;120.13;61.22;;;4.90;99.90;;;;;;5048373;28;20045;-75
2022/12/23 06:37:59;;;;;;;118.40;56.58;;;4.90;99.90;;;;;;5023599;28;20044;-77
2022/12/23 06:40:29;;;;;;;128.50;60.30;;;5.00;99.90;;;;;;5032166;28;20049;-77
2022/12/23 06:42:56;;;;;;;165.70;74.80;;;5.00;99.90;;;;;;5050762;28;20055;-77
2022/12/23 06:45:23;;;;;;;153.90;69.95;;;5.00;99.90;;;;;;5050614;28;20056;-76
2022/12/23 06:47:51;;;;;;;149.63;68.45;;;5.00;99.90;;;;;;5049568;28;20048;-74
2022/12/23 06:50:19;;;;;;;154.63;65.75;;;5.00;99.90;;;;;;5029897;28;20041;-75
2022/12/23 06:52:47;;;;;;;170.02;68.13;;;5.00;99.90;;;;;;5050570;28;20139;-74
2022/12/23 06:55:15;;;;;;;146.45;65.95;;;5.00;99.90;;;;;;5055082;28;20098;-75
2022/12/23 06:57:45;;;;;;;148.38;71.30;;;4.90;99.90;;;;;;5049943;28;20036;-80
2022/12/23 07:00:14;;;;;;;154.10;80.78;;;4.90;99.90;;;;;;5031538;28;20053;-75
2022/12/23 07:02:41;;;;;;;264.08;109.43;;;5.00;99.90;;;;;;5049833;28;20037;-77
2022/12/23 07:05:09;;;;;;;196.25;92.90;;;4.90;99.90;;;;;;5050039;28;20037;-76
2022/12/23 07:07:37;;;;;;;253.80;115.88;;;4.90;99.90;;;;;;5049823;28;20079;-76
2022/12/23 07:10:05;;;;;;;225.00;112.38;;;5.00;99.90;;;;;;5049543;28;20033;-76
2022/12/23 07:12:32;;;;;;;489.20;157.98;;;5.00;99.90;;;;;;5049489;28;20048;-74
2022/12/23 07:15:01;;;;;;;279.50;120.82;;;5.00;99.90;;;;;;5053960;28;20148;-75
2022/12/23 07:17:29;;;;;;;304.98;128.48;;;5.00;99.90;;;;;;5056454;28;20045;-77
2022/12/23 07:19:56;;;;;;;313.88;129.55;;;5.00;99.90;;;;;;5045983;28;20056;-77
2022/12/23 07:22:23;;;;;;;223.18;99.53;;;4.90;99.90;;;;;;5031361;28;20052;-73
2022/12/23 07:24:51;;;;;;;186.60;90.60;;;5.00;99.90;;;;;;5041268;28;20041;-76
2022/12/23 07:27:19;;;;;;;162.82;82.78;;;4.90;99.90;;;;;;5053303;28;20081;-77
2022/12/23 07:29:47;;;;;;;149.90;81.10;;;4.90;99.90;;;;;;5050074;28;20045;-79
2022/12/23 07:32:15;;;;;;;162.43;80.65;;;4.90;99.90;;;;;;5030658;28;20083;-77
2022/12/23 07:34:43;;;;;;;162.40;80.95;;;4.90;99.90;;;;;;5048846;28;20041;-76
2022/12/23 07:37:11;;;;;;;161.73;85.85;;;4.90;99.90;;;;;;5052495;28;20051;-76
2022/12/23 07:39:38;;;;;;;303.02;126.88;;;4.80;99.90;;;;;;5053235;28;20049;-80
2022/12/23 07:42:06;;;;;;;199.88;93.18;;;4.80;99.90;;;;;;5052037;28;20033;-79
2022/12/23 07:44:33;;;;;;;214.32;104.45;;;4.90;99.90;;;;;;5052822;28;20637;-75
2022/12/23 07:47:01;;;;;;;212.65;105.18;;;5.00;99.90;;;;;;5049827;28;20690;-77
2022/12/23 07:49:30;;;;;;;199.10;100.30;;;5.20;99.90;;;;;;5050676;28;20044;-74
2022/12/23 07:52:00;;;;;;;153.75;86.15;;;5.20;99.90;;;;;;5051248;28;20259;-76
2022/12/23 07:54:27;;;;;;;151.75;89.25;;;5.20;99.90;;;;;;5052994;28;20041;-77
2022/12/23 07:56:56;;;;;;;172.05;98.25;;;5.40;99.90;;;;;;5052596;28;20148;-79
2022/12/23 07:59:26;;;;;;;197.13;109.25;;;5.30;99.90;;;;;;5054199;28;20075;-76
2022/12/23 08:01:53;;;;;;;193.70;105.03;;;5.40;99.90;;;;;;5053492;28;20048;-76
2022/12/23 08:04:21;;;;;;;216.07;112.97;;;5.40;99.90;;;;;;5053379;28;20040;-78
2022/12/23 08:06:50;;;;;;;248.70;126.95;;;5.50;99.90;;;;;;5033303;28;20045;-76
2022/12/23 08:09:18;;;;;;;243.95;126.18;;;5.50;99.90;;;;;;5053744;28;20048;-77
2022/12/23 08:11:45;;;;;;;223.18;116.78;;;5.50;99.90;;;;;;5034757;28;20045;-77
2022/12/23 08:14:12;;;;;;;204.07;111.60;;;5.50;99.90;;;;;;5053408;28;21084;-76
2022/12/23 08:16:40;;;;;;;222.57;114.90;;;5.60;99.90;;;;;;5034450;28;20056;-77
2022/12/23 08:19:08;;;;;;;227.32;119.05;;;5.70;99.90;;;;;;5054741;28;20044;-76
2022/12/23 08:21:36;;;;;;;203.25;109.20;;;5.70;99.90;;;;;;5051171;28;20041;-76
2022/12/23 08:24:05;;;;;;;188.90;106.35;;;5.80;99.90;;;;;;5028463;28;20059;-74
2022/12/23 08:26:33;;;;;;;197.00;110.95;;;6.00;99.90;;;;;;5047698;28;20049;-74
2022/12/23 08:29:01;;;;;;;194.35;108.32;;;6.10;99.90;;;;;;5044229;28;20076;-76
2022/12/23 08:31:30;;;;;;;197.38;112.88;;;6.10;99.90;;;;;;5037956;28;20386;-78
2022/12/23 08:33:58;;;;;;;206.50;114.03;;;6.20;99.90;;;;;;5021469;28;20405;-77
2022/12/23 08:36:28;;;;;;;203.98;117.28;;;6.30;99.90;;;;;;5039364;28;20042;-77
2022/12/23 08:38:57;;;;;;;196.73;114.53;;;6.40;99.90;;;;;;5045588;28;20048;-74
2022/12/23 08:41:28;;;;;;;209.93;120.93;;;6.60;99.90;;;;;;5046607;28;20037;-77
2022/12/23 08:43:56;;;;;;;225.00;128.30;;;6.70;99.90;;;;;;5042827;28;20366;-77
2022/12/23 08:46:23;;;;;;;224.85;128.95;;;6.70;99.90;;;;;;5039817;28;20045;-77
2022/12/23 08:48:51;;;;;;;223.85;130.68;;;6.80;99.90;;;;;;5050262;28;20041;-79
2022/12/23 08:51:20;;;;;;;223.27;125.82;;;6.80;99.90;;;;;;5023210;28;20404;-75
2022/12/23 08:53:48;;;;;;;221.82;127.25;;;6.90;99.90;;;;;;5040711;28;20116;-76
2022/12/23 08:56:18;;;;;;;217.52;127.32;;;7.00;99.90;;;;;;5039317;28;20099;-75
2022/12/23 08:58:49;;;;;;;213.38;123.72;;;7.10;99.90;;;;;;5025039;28;20072;-75
2022/12/23 09:01:18;;;;;;;195.95;118.80;;;7.10;99.90;;;;;;5048221;28;20048;-77
2022/12/23 09:03:46;;;;;;;183.48;110.25;;;7.20;99.90;;;;;;5052670;28;20147;-76
2022/12/23 09:06:15;;;;;;;177.55;107.07;;;7.30;99.90;;;;;;5049962;28;20048;-80
2022/12/23 09:08:43;;;;;;;174.68;105.35;;;7.30;99.90;;;;;;5057508;28;20045;-79
2022/12/23 09:11:11;;;;;;;177.70;103.50;;;7.40;99.90;;;;;;5048490;28;20075;-77
2022/12/23 09:13:39;;;;;;;144.07;90.80;;;7.60;99.90;;;;;;5040040;28;20049;-76
2022/12/23 09:16:08;;;;;;;146.90;85.45;;;7.70;99.90;;;;;;5023667;28;20429;-75
2022/12/23 09:18:36;;;;;;;136.65;84.38;;;7.90;99.90;;;;;;5041916;28;20056;-77
2022/12/23 09:21:06;;;;;;;135.98;84.82;;;8.10;99.90;;;;;;5020635;28;20049;-75
2022/12/23 09:23:34;;;;;;;135.45;84.20;;;8.30;99.90;;;;;;5054025;23;20059;-81
2022/12/23 09:26:01;;;;;;;128.45;82.40;;;8.40;99.90;;;;;;5037861;28;20037;-80
2022/12/23 09:28:29;;;;;;;123.20;79.82;;;8.60;99.90;;;;;;5040076;28;20477;-80
2022/12/23 09:30:56;;;;;;;121.55;77.60;;;8.70;99.90;;;;;;5035258;28;20037;-79
2022/12/23 09:33:25;;;;;;;119.03;78.05;;;8.70;99.90;;;;;;5033634;28;20054;-80
2022/12/23 09:35:52;;;;;;;123.63;80.95;;;8.70;99.90;;;;;;5030974;28;20037;-81
2022/12/23 09:38:20;;;;;;;125.00;83.57;;;8.80;99.90;;;;;;5029441;28;20048;-80
2022/12/23 09:40:47;;;;;;;118.78;80.40;;;8.90;99.90;;;;;;5028742;28;20049;-81
2022/12/23 09:43:25;;;;;;;119.50;78.45;;;9.00;99.90;;;;;;5029031;28;20034;-78
2022/12/23 09:46:03;;;;;;;109.60;72.13;;;9.20;99.90;;;;;;5029745;28;20081;-81
2022/12/23 09:48:38;;;;;;;107.35;71.60;;;9.30;99.90;;;;;;5029763;28;20061;-79
2022/12/23 09:51:06;;;;;;;120.30;78.47;;;9.40;99.90;;;;;;5032066;28;20042;-78
2022/12/23 09:53:49;;;;;;;112.63;77.68;;;9.50;99.90;;;;;;5029890;28;20045;-80
2022/12/23 09:56:25;;;;;;;89.05;60.33;;;9.60;99.90;;;;;;5034460;28;20055;-81
2022/12/23 09:58:56;;;;;;;100.50;68.00;;;9.80;99.90;;;;;;5030062;28;20068;-80
2022/12/23 10:01:31;;;;;;;90.35;65.53;;;10.00;99.90;;;;;;5029523;28;20042;-81
2022/12/23 10:07:09;;;;;;;85.70;57.40;;;10.10;99.90;;;;;;5148901;27;20419;-77
2022/12/23 10:09:41;;;;;;;82.38;58.53;;;10.50;99.90;;;;;;5145512;27;20035;-76
2022/12/23 10:12:15;;;;;;;81.15;57.50;;;10.70;99.90;;;;;;5129593;27;20495;-76
2022/12/23 10:14:45;;;;;;;81.32;57.15;;;10.80;99.90;;;;;;5133725;27;20058;-77
2022/12/23 10:17:19;;;;;;;80.50;55.28;;;10.90;99.90;;;;;;5130193;28;20043;-76
2022/12/23 10:19:49;;;;;;;76.28;54.97;;;11.00;99.90;;;;;;5129859;28;20051;-79
2022/12/23 10:22:24;;;;;;;75.35;53.00;;;11.10;99.90;;;;;;5131165;28;20631;-76
2022/12/23 10:24:53;;;;;;;70.68;49.95;;;11.30;99.90;;;;;;5130546;27;20071;-76
2022/12/23 10:27:29;;;;;;;70.78;49.00;;;11.50;99.90;;;;;;5128525;27;20039;-77
2022/12/23 10:30:01;;;;;;;67.05;48.33;;;11.70;99.90;;;;;;5135867;28;20149;-77
2022/12/23 10:32:46;;;;;;;66.90;47.03;;;12.00;99.90;;;;;;5129278;28;20047;-77
2022/12/23 10:35:22;;;;;;;66.07;46.00;;;12.40;99.90;;;;;;5129128;27;20066;-77
2022/12/23 10:37:56;;;;;;;69.80;49.33;;;12.60;1.00;;;;;;5129679;28;20040;-76
2022/12/23 10:40:31;;;;;;;72.45;50.90;;;13.00;1.00;;;;;;5126306;27;20043;-79
2022/12/23 10:43:09;;;;;;;75.07;52.38;;;13.20;5.00;;;;;;5131360;27;20040;-77
2022/12/23 10:45:47;;;;;;;69.97;48.80;;;13.30;1.00;;;;;;5139122;27;20046;-78
2022/12/23 10:48:32;;;;;;;62.65;43.25;;;13.40;1.00;;;;;;5144938;27;20035;-75
2022/12/23 10:51:04;;;;;;;54.65;37.13;;;13.60;1.00;;;;;;5147212;27;20035;-75
2022/12/23 10:53:41;;;;;;;58.67;42.63;;;13.60;90.20;;;;;;5147933;28;20063;-74
2022/12/23 10:56:09;;;;;;;71.03;50.83;;;13.60;7.20;;;;;;5127531;28;20039;-75
2022/12/23 10:58:41;;;;;;;53.30;39.17;;;13.60;1.00;;;;;;5126668;27;20036;-75
2022/12/23 11:01:13;;;;;;;58.90;37.78;;;13.60;1.00;;;;;;5124138;27;20057;-78
2022/12/23 11:03:46;;;;;;;54.38;35.47;;;13.70;99.90;;;;;;5126995;28;20037;-77
2022/12/23 11:06:14;;;;;;;54.58;39.70;;;13.80;1.00;;;;;;5126970;27;20055;-77
2022/12/23 11:08:43;;;;;;;51.38;35.65;;;14.00;97.60;;;;;;5137939;27;20059;-77
2022/12/23 11:11:10;;;;;;;53.60;36.17;;;14.20;1.00;;;;;;5133830;27;20050;-76
2022/12/23 11:13:40;;;;;;;57.78;37.38;;;14.20;1.00;;;;;;5127910;27;20031;-76
2022/12/23 11:16:16;;;;;;;54.83;39.33;;;14.30;1.00;;;;;;5128594;28;20043;-79
2022/12/23 11:18:55;;;;;;;57.42;40.30;;;14.40;1.00;;;;;;5113199;28;20557;-76
2022/12/23 11:21:22;;;;;;;62.28;42.67;;;14.50;1.00;;;;;;5118907;27;20040;-76
2022/12/23 11:24:07;;;;;;;60.25;42.05;;;14.60;1.00;;;;;;5120793;28;20036;-75
2022/12/23 11:26:36;;;;;;;66.10;44.53;;;14.70;1.00;;;;;;5112734;28;20396;-76
2022/12/23 11:29:07;;;;;;;67.45;46.35;;;14.70;1.00;;;;;;5112648;28;20046;-75
2022/12/23 11:31:38;;;;;;;78.63;53.50;;;14.70;99.90;;;;;;5113162;28;20032;-77
2022/12/23 11:34:07;;;;;;;58.53;43.30;;;14.70;99.90;;;;;;5112809;28;20526;-75
2022/12/23 11:36:35;;;;;;;64.88;44.40;;;14.70;1.00;;;;;;5112734;28;20047;-77
2022/12/23 11:39:07;;;;;;;66.78;46.50;;;14.60;1.00;;;;;;5111790;28;20040;-76
2022/12/23 11:41:38;;;;;;;61.55;42.47;;;14.50;1.00;;;;;;5111611;28;20060;-75
2022/12/23 11:44:20;;;;;;;52.15;36.38;;;14.40;99.90;;;;;;5114048;28;20074;-77
2022/12/23 11:46:48;;;;;;;42.85;30.67;;;14.30;99.90;;;;;;5112496;28;20059;-76
2022/12/23 11:49:18;;;;;;;43.28;30.60;;;14.20;99.90;;;;;;5115460;28;20048;-76
2022/12/23 11:51:48;;;;;;;46.38;31.98;;;14.20;99.90;;;;;;5115123;28;20127;-79
2022/12/23 11:54:19;;;;;;;54.75;35.22;;;14.10;99.90;;;;;;5115125;28;20035;-76
2022/12/23 11:56:51;;;;;;;58.13;37.47;;;14.20;1.00;;;;;;5114716;28;20046;-76
2022/12/23 11:59:32;;;;;;;58.58;39.50;;;14.30;1.00;;;;;;5113309;28;20078;-77
2022/12/23 12:02:03;;;;;;;64.40;42.95;;;14.50;42.90;;;;;;5114573;28;20122;-79
2022/12/23 12:04:34;;;;;;;55.72;34.03;;;14.50;1.00;;;;;;5117714;28;20064;-77
2022/12/23 12:07:04;;;;;;;51.40;33.63;;;14.60;1.00;;;;;;5114275;28;20138;-79
2022/12/23 12:09:34;;;;;;;46.70;29.75;;;14.70;99.90;;;;;;5120074;28;20376;-78
2022/12/23 12:12:07;;;;;;;50.92;30.67;;;14.70;99.90;;;;;;5126728;28;20048;-78
2022/12/23 12:14:42;;;;;;;46.45;31.55;;;14.70;1.00;;;;;;5121623;28;20036;-78
2022/12/23 12:17:16;;;;;;;48.80;29.52;;;14.60;9.20;;;;;;5119501;28;20051;-77
2022/12/23 12:19:54;;;;;;;47.22;29.88;;;14.50;1.00;;;;;;5120321;28;20077;-79
2022/12/23 12:22:30;;;;;;;47.60;30.02;;;14.50;1.00;;;;;;5112923;28;20130;-78
2022/12/23 12:25:07;;;;;;;51.38;31.88;;;14.50;1.00;;;;;;5117007;28;20036;-77
2022/12/23 12:27:38;;;;;;;43.42;28.52;;;14.50;30.80;;;;;;5129427;28;20115;-78
2022/12/23 12:30:12;;;;;;;45.08;29.10;;;14.40;1.00;;;;;;5128291;28;20051;-79
2022/12/23 12:32:48;;;;;;;49.75;29.08;;;14.40;1.00;;;;;;5113328;28;20122;-77
2022/12/23 12:35:18;;;;;;;;;;;14.30;1.00;;;;;;5113976;28;20118;-78
2022/12/23 12:37:49;;;;;;;55.47;33.40;;;14.40;1.00;;;;;;5112920;28;19930;-79
2022/12/23 12:40:28;;;;;;;54.80;33.10;;;14.40;1.00;;;;;;5111752;28;20032;-77
2022/12/23 12:43:02;;;;;;;48.67;30.15;;;14.50;1.00;;;;;;5112331;28;20039;-78
2022/12/23 12:45:38;;;;;;;52.95;33.40;;;14.50;1.00;;;;;;5112689;28;20036;-81
2022/12/23 12:48:28;;;;;;;47.08;31.92;;;14.50;1.00;;;;;;5117665;28;20043;-79
2022/12/23 12:51:02;;;;;;;46.17;30.60;;;14.50;1.00;;;;;;5116909;28;20035;-78
2022/12/23 12:53:33;;;;;;;45.00;29.00;;;14.60;1.00;;;;;;5114035;28;20478;-78
2022/12/23 12:56:10;;;;;;;51.05;29.70;;;14.60;1.00;;;;;;5112193;28;20054;-77
2022/12/23 12:58:39;;;;;;;51.28;31.52;;;14.60;1.00;;;;;;5111287;28;20044;-77
2022/12/23 13:01:22;;;;;;;55.75;34.00;;;14.60;1.00;;;;;;5109696;28;20040;-76
2022/12/23 13:04:35;;;;;;;56.17;34.40;;;14.60;1.00;;;;;;5112816;28;20039;-77
2022/12/23 13:07:13;;;;;;;57.45;38.17;;;14.60;1.00;;;;;;5119099;28;20059;-78
2022/12/23 13:09:53;;;;;;;63.08;37.15;;;14.70;1.00;;;;;;5115503;28;20036;-78
2022/12/23 13:12:31;;;;;;;69.28;39.42;;;14.70;1.00;;;;;;5110286;28;20429;-76
2022/12/23 13:15:07;;;;;;;65.38;39.30;;;14.70;1.00;;;;;;5110804;28;20044;-77